Time;durP1;ratioP1;P1;durP2;ratioP2;P2;SDS_P1;SDS_P2;PMS_P1;PMS_P2;Temp;Humidity;BMP_temperature;BMP_pressure;BME280_temperature;BME280_humidity;BME280_pressure;Samples;Min_cycle;Max_cycle;Signal;HPM_P1;HPM_P2
2022/04/18 00:00:07;;;;;;;;;;;8.70;57.20;;;;;;5136882;27;19928;-71
2022/04/18 00:02:33;;;;;;;;;;;8.60;57.30;;;;;;5137236;27;20352;-68
2022/04/18 00:04:59;;;;;;;;;;;8.60;57.30;;;;;;5137103;27;19924;-72
2022/04/18 00:07:25;;;;;;;;;;;9.60;58.60;;;;;;5136954;27;19930;-69
2022/04/18 00:09:50;;;;;;;;;;;8.60;58.20;;;;;;5136919;27;20275;-69
2022/04/18 00:12:16;;;;;;;;;;;8.50;57.90;;;;;;5136805;27;19930;-69
2022/04/18 00:14:41;;;;;;;;;;;9.10;58.70;;;;;;5136687;27;19969;-72
2022/04/18 00:17:09;;;;;;;;;;;8.50;58.80;;;;;;5136750;27;19992;-69
2022/04/18 00:19:38;;;;;;;;;;;8.50;58.80;;;;;;5136840;27;19930;-68
2022/04/18 00:22:04;;;;;;;;;;;8.50;59.50;;;;;;5136698;27;19923;-69
2022/04/18 00:24:30;;;;;;;;;;;8.40;59.40;;;;;;5136222;27;19923;-69
2022/04/18 00:26:55;;;;;;;;;;;8.40;58.60;;;;;;5136247;27;20061;-69
2022/04/18 00:29:21;;;;;;;;;;;8.40;59.40;;;;;;5136460;27;19930;-70
2022/04/18 00:31:46;;;;;;;;;;;8.50;59.30;;;;;;5118168;27;19931;-71
2022/04/18 00:34:14;;;;;;;;;;;8.50;59.80;;;;;;5136448;27;19934;-67
2022/04/18 00:36:39;;;;;;;;;;;8.20;59.50;;;;;;5136455;27;20014;-70
2022/04/18 00:39:05;;;;;;;;;;;8.20;59.70;;;;;;5118290;27;20369;-68
2022/04/18 00:41:30;;;;;;;;;;;9.10;60.80;;;;;;5117564;27;19923;-69
2022/04/18 00:43:56;;;;;;;;;;;9.20;61.70;;;;;;5136246;27;19923;-69
2022/04/18 00:46:21;;;;;;;;;;;8.10;60.60;;;;;;5136065;27;19924;-69
2022/04/18 00:48:47;;;;;;;;;;;8.10;61.60;;;;;;5136336;27;19923;-69
2022/04/18 00:51:14;;;;;;;;;;;8.10;61.00;;;;;;5136150;27;19953;-69
2022/04/18 00:53:41;;;;;;;;;;;8.10;61.30;;;;;;5135935;27;20405;-69
2022/04/18 00:56:07;;;;;;;;;;;8.10;62.60;;;;;;5136033;27;20022;-72
2022/04/18 00:58:33;;;;;;;;;;;9.00;61.90;;;;;;5135954;27;19976;-70
2022/04/18 01:00:59;;;;;;;;;;;8.00;61.80;;;;;;5135779;27;19928;-69
2022/04/18 01:03:25;;;;;;;;;;;8.00;62.60;;;;;;5135951;27;19924;-69
2022/04/18 01:05:51;;;;;;;;;;;6.70;62.00;;;;;;5135951;27;20314;-69
2022/04/18 01:08:17;;;;;;;;;;;7.90;64.50;;;;;;5135760;27;19924;-72
2022/04/18 01:10:43;;;;;;;;;;;8.00;65.80;;;;;;5135650;27;19924;-69
2022/04/18 01:13:09;;;;;;;;;;;8.60;66.00;;;;;;5117526;27;20426;-71
2022/04/18 01:15:34;;;;;;;;;;;8.70;65.20;;;;;;5117173;27;20048;-70
2022/04/18 01:18:00;;;;;;;;;;;8.40;66.10;;;;;;5135776;27;20286;-72
2022/04/18 01:20:30;;;;;;;;;;;7.80;65.20;;;;;;5135654;27;20370;-72
2022/04/18 01:22:57;;;;;;;;;;;7.90;67.20;;;;;;5135437;27;19974;-72
2022/04/18 01:30:54;;;;;;;;;;;7.80;70.30;;;;;;5117139;27;19931;-70
2022/04/18 01:33:20;;;;;;;;;;;7.80;72.90;;;;;;5135070;27;19923;-69
2022/04/18 01:35:45;;;;;;;;;;;8.80;73.00;;;;;;5116849;27;19923;-69
2022/04/18 01:38:11;;;;;;;;;;;6.90;71.80;;;;;;5134198;27;19945;-71
2022/04/18 01:40:37;;;;;;;;;;;7.70;76.50;;;;;;5116799;27;19924;-69
2022/04/18 01:43:02;;;;;;;;;;;7.90;84.70;;;;;;5135067;27;19923;-70
2022/04/18 01:45:28;;;;;;;;;;;7.80;85.90;;;;;;5135472;27;20370;-68
2022/04/18 01:47:53;;;;;;;;;;;8.00;91.10;;;;;;5135306;27;19923;-69
2022/04/18 01:50:19;;;;;;;;;;;7.80;93.00;;;;;;5135055;27;19923;-69
2022/04/18 01:52:44;;;;;;;;;;;7.60;95.20;;;;;;5134871;27;20370;-70
2022/04/18 01:55:10;;;;;;;;;;;7.50;98.20;;;;;;5134910;27;20270;-71
2022/04/18 01:57:36;;;;;;;;;;;8.20;99.60;;;;;;5134787;27;19923;-68
2022/04/18 02:00:02;;;;;;;;;;;7.50;99.90;;;;;;5116951;27;19927;-72
2022/04/18 02:02:28;;;;;;;;;;;7.50;99.90;;;;;;5116767;28;19934;-72
2022/04/18 02:04:54;;;;;;;;;;;7.10;99.90;;;;;;5134916;27;20289;-69
2022/04/18 02:07:19;;;;;;;;;;;7.50;99.90;;;;;;5134817;27;19977;-69
2022/04/18 02:09:45;;;;;;;;;;;7.40;99.90;;;;;;5134788;27;20419;-72
2022/04/18 02:12:10;;;;;;;;;;;8.80;99.10;;;;;;5116534;27;20029;-68
2022/04/18 02:14:36;;;;;;;;;;;8.30;99.30;;;;;;5134521;27;19927;-71
2022/04/18 02:17:02;;;;;;;;;;;8.10;98.80;;;;;;5116837;28;19924;-70
2022/04/18 02:19:27;;;;;;;;;;;7.40;96.20;;;;;;5134644;28;19981;-70
2022/04/18 02:21:53;;;;;;;;;;;7.50;99.10;;;;;;5116671;28;19966;-72
2022/04/18 02:24:18;;;;;;;;;;;7.40;98.50;;;;;;5134514;28;19931;-69
2022/04/18 02:26:44;;;;;;;;;;;7.40;99.90;;;;;;5116473;28;19930;-69
2022/04/18 02:29:09;;;;;;;;;;;7.50;99.90;;;;;;5134393;28;19924;-67
2022/04/18 02:32:47;;;;;;;;;;;7.10;99.90;;;;;;5134647;28;19923;-68
2022/04/18 02:34:20;;;;;;;;;;;7.20;99.90;;;;;;5140442;27;19923;-69
2022/04/18 02:36:46;;;;;;;;;;;7.20;99.90;;;;;;5136932;27;19923;-71
2022/04/18 02:39:12;;;;;;;;;;;7.80;99.90;;;;;;5155150;27;19992;-68
2022/04/18 02:41:37;;;;;;;;;;;7.50;99.90;;;;;;5155161;27;19934;-67
2022/04/18 02:44:03;;;;;;;;;;;7.90;99.90;;;;;;5136865;27;19930;-69
2022/04/18 02:46:28;;;;;;;;;;;7.10;99.90;;;;;;5155282;27;19926;-68
2022/04/18 02:48:54;;;;;;;;;;;7.40;99.90;;;;;;5157067;27;20010;-68
2022/04/18 02:51:19;;;;;;;;;;;7.20;99.90;;;;;;5159296;27;20017;-69
2022/04/18 02:53:45;;;;;;;;;;;7.10;99.90;;;;;;5159089;27;19929;-70
2022/04/18 02:56:11;;;;;;;;;;;7.10;99.90;;;;;;5139768;27;19923;-69
2022/04/18 02:58:36;;;;;;;;;;;8.10;99.90;;;;;;5123075;27;19923;-68
2022/04/18 03:01:02;;;;;;;;;;;7.00;99.90;;;;;;5140711;27;19931;-69
2022/04/18 03:03:27;;;;;;;;;;;7.00;99.90;;;;;;5140636;27;19972;-69
2022/04/18 03:05:53;;;;;;;;;;;7.00;99.90;;;;;;5140549;27;19973;-69
2022/04/18 03:08:19;;;;;;;;;;;7.90;99.90;;;;;;5140663;27;19931;-68
2022/04/18 03:13:29;;;;;;;;;;;6.90;99.90;;;;;;5158649;27;20305;-69
2022/04/18 03:15:55;;;;;;;;;;;6.90;99.90;;;;;;5158756;27;20014;-68
2022/04/18 03:18:21;;;;;;;;;;;7.20;99.90;;;;;;5158758;27;19930;-69
2022/04/18 03:20:46;;;;;;;;;;;6.90;99.90;;;;;;5158683;27;19923;-70
2022/04/18 03:23:12;;;;;;;;;;;6.80;99.90;;;;;;5158537;27;20055;-73
2022/04/18 03:25:38;;;;;;;;;;;6.80;99.90;;;;;;5140325;27;19927;-69
2022/04/18 03:28:03;;;;;;;;;;;7.40;99.90;;;;;;5140115;27;19923;-69
2022/04/18 03:30:29;;;;;;;;;;;6.80;99.90;;;;;;5158553;27;19922;-71
2022/04/18 03:32:54;;;;;;;;;;;6.70;99.90;;;;;;5139536;27;19930;-68
2022/04/18 03:35:20;;;;;;;;;;;7.10;99.90;;;;;;5158298;27;19930;-69
2022/04/18 03:40:30;;;;;;;;;;;7.70;99.90;;;;;;5158230;27;19976;-69
2022/04/18 03:42:55;;;;;;;;;;;7.00;99.90;;;;;;5158137;27;19923;-71
2022/04/18 03:45:21;;;;;;;;;;;6.60;99.90;;;;;;5139928;27;19930;-69
2022/04/18 03:47:46;;;;;;;;;;;7.80;99.90;;;;;;5158267;27;19927;-69
2022/04/18 03:50:12;;;;;;;;;;;6.50;99.90;;;;;;5158253;27;19944;-69
2022/04/18 03:52:38;;;;;;;;;;;6.70;99.90;;;;;;5122561;27;20396;-70
2022/04/18 03:55:04;;;;;;;;;;;6.80;99.90;;;;;;5157986;27;19923;-71
2022/04/18 03:57:29;;;;;;;;;;;6.50;99.90;;;;;;5158063;27;19931;-69
2022/04/18 03:59:55;;;;;;;;;;;6.70;99.90;;;;;;5156875;27;19924;-69
2022/04/18 04:02:20;;;;;;;;;;;6.40;99.90;;;;;;5157942;27;19923;-69
2022/04/18 04:04:46;;;;;;;;;;;6.40;99.90;;;;;;5157934;27;19923;-69
2022/04/18 04:07:11;;;;;;;;;;;6.30;99.90;;;;;;5157774;27;19923;-69
2022/04/18 04:09:37;;;;;;;;;;;5.70;99.90;;;;;;5157698;27;19923;-70
2022/04/18 04:12:03;;;;;;;;;;;6.30;99.90;;;;;;5157510;27;19923;-70
2022/04/18 04:14:29;;;;;;;;;;;6.30;99.90;;;;;;5157626;27;19975;-69
2022/04/18 04:16:54;;;;;;;;;;;6.30;99.90;;;;;;5157657;27;19927;-69
2022/04/18 04:19:20;;;;;;;;;;;6.30;99.90;;;;;;5157569;27;20323;-69
2022/04/18 04:21:45;;;;;;;;;;;6.30;99.90;;;;;;5139394;27;20382;-69
2022/04/18 04:24:11;;;;;;;;;;;6.30;99.90;;;;;;5157306;27;20442;-69
2022/04/18 04:26:37;;;;;;;;;;;6.30;99.90;;;;;;5157261;27;19977;-71
2022/04/18 04:29:02;;;;;;;;;;;6.70;99.90;;;;;;5157444;27;19968;-69
2022/04/18 04:31:28;;;;;;;;;;;6.70;99.90;;;;;;5139213;27;20404;-69
2022/04/18 04:33:54;;;;;;;;;;;6.90;99.90;;;;;;5156985;27;19923;-70
2022/04/18 04:36:20;;;;;;;;;;;6.20;99.90;;;;;;5157092;27;19924;-69
2022/04/18 04:38:45;;;;;;;;;;;6.20;99.90;;;;;;5157063;27;19930;-69
2022/04/18 04:41:11;;;;;;;;;;;7.40;99.90;;;;;;5157034;27;20408;-70
2022/04/18 04:43:38;;;;;;;;;;;6.20;99.90;;;;;;5138453;27;19923;-69
2022/04/18 04:46:04;;;;;;;;;;;6.70;99.90;;;;;;5157158;27;19923;-71
2022/04/18 04:48:29;;;;;;;;;;;6.20;99.90;;;;;;5156756;27;19929;-70
2022/04/18 04:50:55;;;;;;;;;;;6.20;99.90;;;;;;5156824;27;19923;-69
2022/04/18 04:53:21;;;;;;;;;;;6.20;99.90;;;;;;5156977;27;19923;-70
2022/04/18 04:55:47;;;;;;;;;;;6.10;99.90;;;;;;5137954;27;20382;-69
2022/04/18 04:58:12;;;;;;;;;;;6.10;99.90;;;;;;5156590;27;20013;-68
2022/04/18 05:00:38;;;;;;;;;;;6.10;99.90;;;;;;5156811;27;19923;-71
2022/04/18 05:03:04;;;;;;;;;;;6.10;99.90;;;;;;5156723;27;20084;-68
2022/04/18 05:05:30;;;;;;;;;;;6.80;99.90;;;;;;5138447;27;20118;-67
2022/04/18 05:07:55;;;;;;;;;;;6.40;99.90;;;;;;5156456;27;19929;-69
2022/04/18 05:10:21;;;;;;;;;;;6.60;99.90;;;;;;5138330;27;20022;-69
2022/04/18 05:12:47;;;;;;;;;;;6.70;99.90;;;;;;5137948;27;20358;-69
2022/04/18 05:15:12;;;;;;;;;;;6.70;99.90;;;;;;5156262;27;19931;-69
2022/04/18 05:17:38;;;;;;;;;;;6.50;99.90;;;;;;5138289;27;20422;-70
2022/04/18 05:20:04;;;;;;;;;;;4.70;99.90;;;;;;5138278;27;19924;-70
2022/04/18 05:22:30;;;;;;;;;;;6.10;99.90;;;;;;5156204;27;19923;-69
2022/04/18 05:24:56;;;;;;;;;;;6.10;99.90;;;;;;5137957;27;19923;-69
2022/04/18 05:27:22;;;;;;;;;;;6.60;99.90;;;;;;5156126;27;19930;-69
2022/04/18 05:29:47;;;;;;;;;;;6.50;99.90;;;;;;5156064;27;20366;-72
2022/04/18 05:32:13;;;;;;;;;;;6.20;99.90;;;;;;5137554;27;20018;-72
2022/04/18 05:34:39;;;;;;;;;;;6.20;99.90;;;;;;5137506;27;19931;-68
2022/04/18 05:37:04;;;;;;;;;;;6.20;99.90;;;;;;5156027;27;19923;-69
2022/04/18 05:39:30;;;;;;;;;;;6.30;99.90;;;;;;5137667;27;19930;-69
2022/04/18 05:41:59;;;;;;;;;;;6.30;99.90;;;;;;5155912;27;19923;-74
2022/04/18 05:44:24;;;;;;;;;;;6.30;99.90;;;;;;5155811;27;20378;-72
2022/04/18 05:46:50;;;;;;;;;;;6.40;99.90;;;;;;5155770;27;19930;-69
2022/04/18 05:49:16;;;;;;;;;;;7.20;99.90;;;;;;5155928;27;19929;-71
2022/04/18 05:51:41;;;;;;;;;;;6.50;99.90;;;;;;5155917;27;19923;-68
2022/04/18 05:54:07;;;;;;;;;;;6.90;99.90;;;;;;5155538;27;19980;-67
2022/04/18 05:56:32;;;;;;;;;;;7.50;99.90;;;;;;5137515;27;19984;-67
2022/04/18 05:58:59;;;;;;;;;;;7.40;99.90;;;;;;5137439;27;20296;-70
2022/04/18 06:01:24;;;;;;;;;;;6.80;99.90;;;;;;5137268;27;19933;-69
2022/04/18 06:03:50;;;;;;;;;;;8.00;99.90;;;;;;5155756;27;19923;-72
2022/04/18 06:06:16;;;;;;;;;;;7.90;99.90;;;;;;5137077;27;19930;-72
2022/04/18 06:08:41;;;;;;;;;;;7.00;99.90;;;;;;5155530;27;20036;-69
2022/04/18 06:11:07;;;;;;;;;;;7.00;99.90;;;;;;5155544;27;19933;-69
2022/04/18 06:13:33;;;;;;;;;;;7.10;99.90;;;;;;5155482;27;19937;-68
2022/04/18 06:15:58;;;;;;;;;;;7.30;99.90;;;;;;5155263;27;19934;-69
2022/04/18 06:18:24;;;;;;;;;;;7.20;99.90;;;;;;5155609;27;20293;-68
2022/04/18 06:20:49;;;;;;;;;;;8.20;99.90;;;;;;5155425;27;20398;-70
2022/04/18 06:23:16;;;;;;;;;;;7.50;99.90;;;;;;5157636;27;19929;-71
2022/04/18 06:25:42;;;;;;;;;;;8.40;99.90;;;;;;5144083;27;19946;-70
2022/04/18 06:28:08;;;;;;;;;;;7.80;99.90;;;;;;5144039;27;19978;-69
2022/04/18 06:30:33;;;;;;;;;;;7.60;99.90;;;;;;5162201;27;19923;-69
2022/04/18 06:32:59;;;;;;;;;;;7.70;99.90;;;;;;5143375;27;19936;-70
2022/04/18 06:35:25;;;;;;;;;;;7.80;99.90;;;;;;5162155;27;19931;-67
2022/04/18 06:37:50;;;;;;;;;;;7.80;99.90;;;;;;5162230;27;19923;-68
2022/04/18 06:40:16;;;;;;;;;;;8.60;99.90;;;;;;5143965;27;19923;-72
2022/04/18 06:42:41;;;;;;;;;;;8.00;99.90;;;;;;5162166;27;19923;-69
2022/04/18 06:45:07;;;;;;;;;;;8.30;99.90;;;;;;5143779;27;19927;-68
2022/04/18 06:47:33;;;;;;;;;;;8.20;99.90;;;;;;5160540;27;20374;-72
2022/04/18 06:49:58;;;;;;;;;;;8.30;99.90;;;;;;5143840;27;19930;-70
2022/04/18 06:52:24;;;;;;;;;;;8.60;99.90;;;;;;5161954;27;19930;-68
2022/04/18 06:54:50;;;;;;;;;;;8.50;99.90;;;;;;5161379;27;19923;-68
2022/04/18 06:57:16;;;;;;;;;;;8.60;99.90;;;;;;5161907;27;19923;-71
2022/04/18 06:59:42;;;;;;;;;;;8.70;99.90;;;;;;5143705;27;19923;-73
2022/04/18 07:02:07;;;;;;;;;;;8.80;99.90;;;;;;5161533;27;19972;-68
2022/04/18 07:04:33;;;;;;;;;;;9.10;99.90;;;;;;5143841;27;19923;-71
2022/04/18 07:06:58;;;;;;;;;;;9.00;99.90;;;;;;5162012;27;19929;-70
2022/04/18 07:09:24;;;;;;;;;;;10.10;99.90;;;;;;5161897;27;19923;-68
2022/04/18 07:11:50;;;;;;;;;;;9.40;99.90;;;;;;5161908;27;20312;-69
2022/04/18 07:14:15;;;;;;;;;;;9.40;99.90;;;;;;5161731;27;19923;-73
2022/04/18 07:16:41;;;;;;;;;;;9.40;99.90;;;;;;5161608;27;19923;-69
2022/04/18 07:19:07;;;;;;;;;;;10.10;99.90;;;;;;5161621;27;20358;-69
2022/04/18 07:21:33;;;;;;;;;;;10.40;99.90;;;;;;5161683;27;19923;-70
2022/04/18 07:23:59;;;;;;;;;;;9.80;99.90;;;;;;5161640;27;19923;-70
2022/04/18 07:26:24;;;;;;;;;;;9.90;99.90;;;;;;5161583;27;19923;-71
2022/04/18 07:28:50;;;;;;;;;;;10.00;99.90;;;;;;5161690;27;20010;-69
2022/04/18 07:31:15;;;;;;;;;;;10.00;99.90;;;;;;5161647;27;19930;-68
2022/04/18 07:33:41;;;;;;;;;;;10.10;99.90;;;;;;5161829;27;19930;-70
2022/04/18 07:36:07;;;;;;;;;;;10.00;99.90;;;;;;5139619;27;19923;-69
2022/04/18 07:38:51;;;;;;;;;;;10.30;99.90;;;;;;5140129;27;19944;-71
2022/04/18 07:41:17;;;;;;;;;;;10.40;99.90;;;;;;5158232;27;19968;-69
2022/04/18 07:43:42;;;;;;;;;;;11.10;99.90;;;;;;5139714;27;19927;-69
2022/04/18 07:46:08;;;;;;;;;;;10.50;99.50;;;;;;5139680;27;19927;-72
2022/04/18 07:48:34;;;;;;;;;;;10.70;98.70;;;;;;5157909;27;20028;-70
2022/04/18 07:53:44;;;;;;;;;;;10.80;98.30;;;;;;5158031;27;19946;-73
2022/04/18 07:56:09;;;;;;;;;;;10.90;97.70;;;;;;5157941;27;20370;-69
2022/04/18 07:58:35;;;;;;;;;;;11.00;97.60;;;;;;5157911;27;19924;-71
2022/04/18 08:01:01;;;;;;;;;;;11.10;97.90;;;;;;5157715;27;20377;-71
2022/04/18 08:03:26;;;;;;;;;;;11.20;97.60;;;;;;5157968;27;19930;-69
2022/04/18 08:05:56;;;;;;;;;;;11.30;94.40;;;;;;5157916;27;20017;-69
2022/04/18 08:08:21;;;;;;;;;;;11.40;93.80;;;;;;5139471;27;19930;-70
2022/04/18 08:10:47;;;;;;;;;;;11.90;94.10;;;;;;5157727;27;19923;-69
2022/04/18 08:13:13;;;;;;;;;;;11.60;93.20;;;;;;5139370;27;20039;-69
2022/04/18 08:15:39;;;;;;;;;;;11.70;91.00;;;;;;5138950;27;20409;-70
2022/04/18 08:18:05;;;;;;;;;;;11.80;92.00;;;;;;5157563;27;19923;-69
2022/04/18 08:20:31;;;;;;;;;;;11.90;86.60;;;;;;5157570;27;20003;-68
2022/04/18 08:22:56;;;;;;;;;;;12.00;83.80;;;;;;5139016;27;20297;-71
2022/04/18 08:25:22;;;;;;;;;;;12.10;86.80;;;;;;5157286;27;19923;-70
2022/04/18 08:27:48;;;;;;;;;;;12.20;85.40;;;;;;5157387;27;19931;-70
2022/04/18 08:30:13;;;;;;;;;;;12.30;85.30;;;;;;5157156;27;20266;-70
2022/04/18 08:32:39;;;;;;;;;;;12.40;84.70;;;;;;5156944;27;20014;-70
2022/04/18 08:35:05;;;;;;;;;;;12.50;83.80;;;;;;5138259;27;19923;-69
2022/04/18 08:37:31;;;;;;;;;;;12.60;76.60;;;;;;5157160;27;19930;-72
2022/04/18 08:39:56;;;;;;;;;;;12.70;76.00;;;;;;5157077;27;19923;-70
2022/04/18 08:42:23;;;;;;;;;;;12.70;77.00;;;;;;5160201;27;19930;-70
2022/04/18 08:44:54;;;;;;;;;;;12.80;68.50;;;;;;5138843;27;19958;-72
2022/04/18 08:52:49;;;;;;;;;;;13.20;71.10;;;;;;5157465;27;19923;-70
2022/04/18 08:55:16;;;;;;;;;;;13.30;70.60;;;;;;5138221;27;19962;-70
2022/04/18 08:57:41;;;;;;;;;;;13.30;67.20;;;;;;5156252;27;20331;-69
2022/04/18 09:00:07;;;;;;;;;;;13.40;67.40;;;;;;5172293;27;20013;-71
2022/04/18 09:02:33;;;;;;;;;;;13.50;64.10;;;;;;5174053;27;19961;-69
2022/04/18 09:04:59;;;;;;;;;;;13.50;66.50;;;;;;5165993;27;20013;-69
2022/04/18 09:07:24;;;;;;;;;;;13.70;66.00;;;;;;5159948;27;19930;-72
2022/04/18 09:09:54;;;;;;;;;;;13.70;63.90;;;;;;5156126;27;20010;-71
2022/04/18 09:12:21;;;;;;;;;;;13.80;62.20;;;;;;5156317;27;19923;-72
2022/04/18 09:14:50;;;;;;;;;;;14.00;57.50;;;;;;5156548;27;19923;-74
2022/04/18 09:17:31;;;;;;;;;;;14.00;63.70;;;;;;5156437;27;20285;-70
2022/04/18 09:20:04;;;;;;;;;;;14.10;58.80;;;;;;5156389;27;19973;-72
2022/04/18 09:22:29;;;;;;;;;;;14.20;59.70;;;;;;5156620;27;19930;-69
2022/04/18 09:24:55;;;;;;;;;;;14.30;55.80;;;;;;5156083;27;19923;-70
2022/04/18 09:27:24;;;;;;;;;;;14.40;58.70;;;;;;5137845;27;19923;-70
2022/04/18 09:30:06;;;;;;;;;;;14.50;57.50;;;;;;5156292;27;19924;-70
2022/04/18 09:32:31;;;;;;;;;;;14.60;57.30;;;;;;5137676;27;20086;-70
2022/04/18 09:35:01;;;;;;;;;;;14.80;58.90;;;;;;5137622;27;19930;-74
2022/04/18 09:37:30;;;;;;;;;;;14.90;55.60;;;;;;5155747;27;19923;-70
2022/04/18 09:39:56;;;;;;;;;;;15.00;52.90;;;;;;5156079;27;19923;-70
2022/04/18 09:42:22;;;;;;;;;;;15.10;52.30;;;;;;5156015;27;20431;-72
2022/04/18 09:44:49;;;;;;;;;;;15.20;57.60;;;;;;5137530;27;19970;-71
2022/04/18 09:47:16;;;;;;;;;;;15.30;55.60;;;;;;5137585;27;19923;-71
2022/04/18 09:49:42;;;;;;;;;;;15.40;54.90;;;;;;5137484;27;19974;-70
2022/04/18 09:52:09;;;;;;;;;;;15.60;55.80;;;;;;5137558;27;19935;-73
2022/04/18 09:54:35;;;;;;;;;;;15.70;57.00;;;;;;5155612;27;19931;-70
2022/04/18 09:57:04;;;;;;;;;;;15.80;52.30;;;;;;5155728;27;19923;-70
2022/04/18 09:59:30;;;;;;;;;;;15.90;53.10;;;;;;5154947;27;19926;-70
2022/04/18 10:01:57;;;;;;;;;;;16.00;54.10;;;;;;5155579;27;19930;-71
2022/04/18 10:04:26;;;;;;;;;;;16.00;52.60;;;;;;5136624;27;19923;-69
2022/04/18 10:06:53;;;;;;;;;;;16.10;53.50;;;;;;5155078;27;19930;-71
2022/04/18 10:09:20;;;;;;;;;;;16.30;54.10;;;;;;5137052;27;20023;-73
2022/04/18 10:11:47;;;;;;;;;;;16.40;50.90;;;;;;5120221;27;19923;-70
2022/04/18 10:14:14;;;;;;;;;;;16.40;51.70;;;;;;5136598;27;20293;-70
2022/04/18 10:16:41;;;;;;;;;;;16.50;53.30;;;;;;5154988;27;19923;-72
2022/04/18 10:19:20;;;;;;;;;;;16.60;50.00;;;;;;5136688;27;19959;-70
2022/04/18 10:21:51;;;;;;;;;;;16.70;51.40;;;;;;5154902;27;19927;-70
2022/04/18 10:24:29;;;;;;;;;;;16.80;52.20;;;;;;5155258;27;19929;-70
2022/04/18 10:26:56;;;;;;;;;;;16.90;53.40;;;;;;5155237;27;19977;-70
2022/04/18 10:29:33;;;;;;;;;;;17.00;52.10;;;;;;5154942;27;20382;-73
2022/04/18 10:32:03;;;;;;;;;;;17.10;48.10;;;;;;5154775;27;19927;-72
2022/04/18 10:34:33;;;;;;;;;;;17.20;51.00;;;;;;5154729;27;19927;-71
2022/04/18 10:37:03;;;;;;;;;;;17.30;52.40;;;;;;5119436;27;20366;-69
2022/04/18 10:39:40;;;;;;;;;;;17.30;50.00;;;;;;5136540;27;19974;-71
2022/04/18 10:42:30;;;;;;;;;;;17.40;48.30;;;;;;5136508;27;19923;-70
2022/04/18 10:44:59;;;;;;;;;;;17.50;49.80;;;;;;5054278;28;19979;-71
2022/04/18 10:47:25;;;;;;;;;;;17.50;46.40;;;;;;5070902;28;20376;-73
2022/04/18 10:50:22;;;;;;;;;;;17.50;44.20;;;;;;5070744;28;19971;-70
2022/04/18 10:53:08;;;;;;;;;;;17.60;45.80;;;;;;5011001;28;19926;-72
2022/04/18 10:55:35;;;;;;;;;;;17.60;45.40;;;;;;4994742;28;20012;-70
2022/04/18 10:58:22;;;;;;;;;;;17.70;46.50;;;;;;5011111;28;20388;-73
2022/04/18 11:00:50;;;;;;;;;;;17.80;47.50;;;;;;5011007;28;19930;-70
2022/04/18 11:03:34;;;;;;;;;;;17.90;47.50;;;;;;5010907;28;20328;-74
2022/04/18 11:06:05;;;;;;;;;;;17.90;47.40;;;;;;4994187;28;19933;-72
2022/04/18 11:08:31;;;;;;;;;;;18.00;45.80;;;;;;4994905;28;19926;-70
2022/04/18 11:11:06;;;;;;;;;;;18.00;46.60;;;;;;5014025;28;20335;-71
2022/04/18 11:13:33;;;;;;;;;;;18.10;46.80;;;;;;4998416;28;19925;-71
2022/04/18 11:16:18;;;;;;;;;;;18.00;48.50;;;;;;5014320;28;19925;-72
2022/04/18 11:19:04;;;;;;;;;;;18.10;44.80;;;;;;5014480;28;19941;-71
2022/04/18 11:21:49;;;;;;;;;;;18.10;47.50;;;;;;5034025;28;19982;-71
2022/04/18 11:24:36;;;;;;;;;;;18.10;42.90;;;;;;5074172;28;20450;-74
2022/04/18 11:27:05;;;;;;;;;;;18.10;46.50;;;;;;5057560;28;19928;-70
2022/04/18 11:29:33;;;;;;;;;;;18.20;44.00;;;;;;5128097;27;19923;-71
2022/04/18 11:31:59;;;;;;;;;;;18.10;41.90;;;;;;5156729;27;19934;-71
2022/04/18 11:34:26;;;;;;;;;;;18.10;45.90;;;;;;5116923;28;19973;-71
2022/04/18 11:36:59;;;;;;;;;;;18.20;48.40;;;;;;5116757;28;20290;-72
2022/04/18 11:39:24;;;;;;;;;;;18.30;45.30;;;;;;5116610;28;19931;-72
2022/04/18 11:42:04;;;;;;;;;;;18.30;43.90;;;;;;5116951;28;19924;-71
2022/04/18 11:44:37;;;;;;;;;;;18.30;46.90;;;;;;5116845;28;20487;-70
2022/04/18 11:47:10;;;;;;;;;;;18.40;45.40;;;;;;5125005;27;19939;-71
2022/04/18 11:49:36;;;;;;;;;;;18.40;45.20;;;;;;5135997;27;19923;-70
2022/04/18 11:52:02;;;;;;;;;;;18.50;45.00;;;;;;5116300;27;19924;-71
2022/04/18 11:54:28;;;;;;;;;;;18.50;44.00;;;;;;5116385;28;19930;-71
2022/04/18 11:57:01;;;;;;;;;;;18.40;43.40;;;;;;5127578;27;19923;-70
2022/04/18 11:59:30;;;;;;;;;;;18.40;44.20;;;;;;5127777;27;19949;-71
2022/04/18 12:07:28;;;;;;;;;;;18.60;43.90;;;;;;5136927;27;19934;-73
2022/04/18 12:09:54;;;;;;;;;;;18.50;42.30;;;;;;5136852;27;20301;-71
2022/04/18 12:12:27;;;;;;;;;;;18.70;40.70;;;;;;5135810;27;19927;-72
2022/04/18 12:14:53;;;;;;;;;;;18.50;44.00;;;;;;5136473;27;20017;-73
2022/04/18 12:17:19;;;;;;;;;;;18.50;41.50;;;;;;5136604;27;19927;-72
2022/04/18 12:19:45;;;;;;;;;;;18.50;42.20;;;;;;5135883;27;20395;-71
2022/04/18 12:22:21;;;;;;;;;;;18.50;42.90;;;;;;5135754;27;19924;-70
2022/04/18 12:24:47;;;;;;;;;;;18.60;43.90;;;;;;5135501;27;19923;-71
2022/04/18 12:27:13;;;;;;;;;;;18.60;42.20;;;;;;5136502;27;20014;-73
2022/04/18 12:29:39;;;;;;;;;;;18.60;41.20;;;;;;5136354;27;20298;-71
2022/04/18 12:32:04;;;;;;;;;;;18.70;42.70;;;;;;5139147;27;19923;-71
2022/04/18 12:34:30;;;;;;;;;;;18.60;41.70;;;;;;5159122;27;19923;-70
2022/04/18 12:36:59;;;;;;;;;;;18.60;43.80;;;;;;5177858;27;19966;-74
2022/04/18 12:39:26;;;;;;;;;;;18.50;42.10;;;;;;5177709;27;19930;-70
2022/04/18 12:42:09;;;;;;;;;;;18.50;42.70;;;;;;5177784;27;19987;-72
2022/04/18 12:44:34;;;;;;;;;;;18.60;43.80;;;;;;5177553;27;19923;-71
2022/04/18 12:47:19;;;;;;;;;;;18.60;42.80;;;;;;5177836;27;20388;-73
2022/04/18 12:50:02;;;;;;;;;;;18.60;42.30;;;;;;5177568;27;20423;-72
2022/04/18 12:52:28;;;;;;;;;;;18.60;43.20;;;;;;5177926;27;19927;-71
2022/04/18 12:55:01;;;;;;;;;;;18.60;43.00;;;;;;5177368;27;19923;-71
2022/04/18 12:57:29;;;;;;;;;;;18.70;41.30;;;;;;5177772;27;19930;-72
2022/04/18 12:59:55;;;;;;;;;;;18.60;42.70;;;;;;5177598;27;19923;-71
2022/04/18 13:02:21;;;;;;;;;;;18.50;40.40;;;;;;5177533;27;19952;-73
2022/04/18 13:04:58;;;;;;;;;;;18.60;42.50;;;;;;5158957;27;19938;-72
2022/04/18 13:07:23;;;;;;;;;;;18.60;41.40;;;;;;5177186;27;19922;-71
2022/04/18 13:10:00;;;;;;;;;;;18.60;41.70;;;;;;5177201;27;19922;-73
2022/04/18 13:12:29;;;;;;;;;;;18.60;42.10;;;;;;5177137;27;20270;-71
2022/04/18 13:15:05;;;;;;;;;;;18.60;41.60;;;;;;5177256;27;19930;-71
2022/04/18 13:17:33;;;;;;;;;;;18.60;43.20;;;;;;5177131;27;19929;-73
2022/04/18 13:20:00;;;;;;;;;;;18.60;43.30;;;;;;5176965;27;20458;-73
2022/04/18 13:22:26;;;;;;;;;;;18.70;40.20;;;;;;5177264;27;20361;-70
2022/04/18 13:24:52;;;;;;;;;;;18.70;42.40;;;;;;5158680;27;19930;-70
2022/04/18 13:27:37;;;;;;;;;;;18.70;41.60;;;;;;5176993;27;19923;-71
2022/04/18 13:30:03;;;;;;;;;;;18.80;41.20;;;;;;5176846;27;19930;-72
2022/04/18 13:32:29;;;;;;;;;;;18.80;41.80;;;;;;5157546;27;19927;-71
2022/04/18 13:34:55;;;;;;;;;;;18.80;44.10;;;;;;5176473;27;19923;-71
2022/04/18 13:37:21;;;;;;;;;;;18.80;41.20;;;;;;5176964;27;19930;-71
2022/04/18 13:39:52;;;;;;;;;;;18.90;44.00;;;;;;5158252;27;19923;-70
2022/04/18 13:42:18;;;;;;;;;;;18.90;42.00;;;;;;5176670;27;20022;-72
2022/04/18 13:44:43;;;;;;;;;;;19.00;43.00;;;;;;5176574;27;19966;-71
2022/04/18 13:47:10;;;;;;;;;;;19.00;42.40;;;;;;5140482;27;19923;-71
2022/04/18 13:49:37;;;;;;;;;;;19.00;42.20;;;;;;5157669;27;20305;-71
2022/04/18 13:52:03;;;;;;;;;;;19.00;41.90;;;;;;5176359;27;19922;-70
2022/04/18 13:54:29;;;;;;;;;;;19.10;43.00;;;;;;5176550;27;19978;-70
2022/04/18 13:56:56;;;;;;;;;;;19.10;42.70;;;;;;5176387;27;19926;-73
2022/04/18 13:59:22;;;;;;;;;;;19.10;39.50;;;;;;5176315;27;19930;-71
2022/04/18 14:01:48;;;;;;;;;;;19.20;42.00;;;;;;5176229;27;19923;-71
2022/04/18 14:04:13;;;;;;;;;;;19.20;42.00;;;;;;5176055;27;19923;-73
2022/04/18 14:06:39;;;;;;;;;;;19.20;42.50;;;;;;5176526;27;19996;-73
2022/04/18 14:09:05;;;;;;;;;;;19.20;42.50;;;;;;5176372;27;19934;-70
2022/04/18 14:11:33;;;;;;;;;;;19.30;42.10;;;;;;5176102;27;19922;-72
2022/04/18 14:13:58;;;;;;;;;;;19.30;41.90;;;;;;5157682;27;19949;-70
2022/04/18 14:21:57;;;;;;;;;;;19.50;41.90;;;;;;5132006;27;19945;-72
2022/04/18 14:24:23;;;;;;;;;;;19.60;41.40;;;;;;5132105;28;20441;-70
2022/04/18 14:26:48;;;;;;;;;;;19.70;40.20;;;;;;5131973;28;19928;-71
2022/04/18 14:29:14;;;;;;;;;;;19.80;42.80;;;;;;5132074;28;19956;-71
2022/04/18 14:31:40;;;;;;;;;;;19.90;42.70;;;;;;5132068;28;20512;-71
2022/04/18 14:34:05;;;;;;;;;;;19.90;37.30;;;;;;5131808;28;19972;-73
2022/04/18 14:36:31;;;;;;;;;;;20.00;40.80;;;;;;5131942;28;20426;-72
2022/04/18 14:38:58;;;;;;;;;;;20.00;38.30;;;;;;5114921;28;19972;-72
2022/04/18 14:41:24;;;;;;;;;;;20.00;39.50;;;;;;5132020;28;20018;-71
2022/04/18 14:43:49;;;;;;;;;;;20.20;39.70;;;;;;5132134;27;20023;-71
2022/04/18 14:46:15;;;;;;;;;;;20.30;38.50;;;;;;5136184;27;19923;-71
2022/04/18 14:48:40;;;;;;;;;;;20.40;40.60;;;;;;5118784;27;19924;-72
2022/04/18 14:51:06;;;;;;;;;;;20.40;38.70;;;;;;5135692;27;19923;-71
2022/04/18 14:53:31;;;;;;;;;;;20.50;37.50;;;;;;5136021;27;19969;-70